createdAt,value
2019-04-27T00:01:13.776Z,67.01
2019-04-27T00:03:54.356Z,66.99
2019-04-27T00:06:26.490Z,66.90
2019-04-27T00:09:14.489Z,66.96
2019-04-27T00:11:45.736Z,67.02
2019-04-27T00:14:18.125Z,67.04
2019-04-27T00:16:50.909Z,67.06
2019-04-27T00:19:27.342Z,67.06
2019-04-27T00:22:08.997Z,67.03
2019-04-27T00:24:38.519Z,67.11
2019-04-27T00:27:08.147Z,67.11
2019-04-27T00:29:37.720Z,67.18
2019-04-27T00:32:07.390Z,67.20
2019-04-27T00:34:37.254Z,67.20
2019-04-27T00:37:06.848Z,67.21
2019-04-27T00:39:40.664Z,67.21
2019-04-27T00:42:10.209Z,67.30
2019-04-27T00:44:39.762Z,67.28
2019-04-27T00:47:09.298Z,67.27
2019-04-27T00:49:39.081Z,67.34
2019-04-27T00:52:08.622Z,67.33
2019-04-27T00:54:38.138Z,67.41
2019-04-27T00:57:09.315Z,67.48
2019-04-27T00:59:56.326Z,67.48
2019-04-27T01:02:28.452Z,67.48
2019-04-27T01:04:58.315Z,67.49
2019-04-27T01:07:28.014Z,67.53
2019-04-27T01:09:57.591Z,67.47
2019-04-27T01:12:27.173Z,67.40
2019-04-27T01:14:56.745Z,67.35
2019-04-27T01:17:26.282Z,67.35
2019-04-27T01:19:55.889Z,67.39
2019-04-27T01:22:25.595Z,67.41
2019-04-27T01:24:55.139Z,67.49
2019-04-27T01:27:29.128Z,67.47
2019-04-27T01:29:59.106Z,67.41
2019-04-27T01:32:29.251Z,67.34
2019-04-27T01:34:59.203Z,67.30
2019-04-27T01:37:29.205Z,67.30
2019-04-27T01:39:59.099Z,67.37
2019-04-27T01:42:29.478Z,67.36
2019-04-27T01:44:59.758Z,67.29
2019-04-27T01:47:29.306Z,67.42
2019-04-27T01:49:58.828Z,67.50
2019-04-27T01:52:29.190Z,67.53
2019-04-27T01:54:59.652Z,67.57
2019-04-27T01:57:29.548Z,67.59
2019-04-27T01:59:59.529Z,67.61
2019-04-27T02:02:30.916Z,67.56
2019-04-27T02:05:02.994Z,67.51
2019-04-27T02:07:32.672Z,67.50
2019-04-27T02:10:02.345Z,67.46
2019-04-27T02:12:31.900Z,67.49
2019-04-27T02:15:01.444Z,67.42
2019-04-27T02:17:30.968Z,67.36
2019-04-27T02:20:00.482Z,67.36
2019-04-27T02:22:30.038Z,67.31
2019-04-27T02:24:59.591Z,67.34
2019-04-27T02:27:30.769Z,67.35
2019-04-27T02:30:07.626Z,67.40
2019-04-27T02:32:39.688Z,67.36
2019-04-27T02:35:11.232Z,67.39
2019-04-27T02:37:40.822Z,67.42
2019-04-27T02:40:42.348Z,67.42
2019-04-27T02:43:10.686Z,67.32
2019-04-27T02:45:40.431Z,67.31
2019-04-27T02:48:10.115Z,67.28
2019-04-27T02:50:40.116Z,67.23
2019-04-27T02:53:11.017Z,67.20
2019-04-27T02:55:41.401Z,67.23
2019-04-27T02:58:12.999Z,67.30
2019-04-27T03:00:42.304Z,67.39
2019-04-27T03:03:13.816Z,67.44
2019-04-27T03:05:43.839Z,67.45
2019-04-27T03:08:13.629Z,67.52
2019-04-27T03:10:43.175Z,67.60
2019-04-27T03:13:14.327Z,67.74
2019-04-27T03:16:01.282Z,67.75
2019-04-27T03:18:32.858Z,67.75
2019-04-27T03:21:13.389Z,67.69
2019-04-27T03:23:43.071Z,67.73
2019-04-27T03:26:14.261Z,67.75
2019-04-27T03:28:43.936Z,67.81
2019-04-27T03:31:14.330Z,67.80
2019-04-27T03:33:44.315Z,67.80
2019-04-27T03:36:14.218Z,67.84
2019-04-27T03:38:43.996Z,67.78
2019-04-27T03:41:13.809Z,67.83
2019-04-27T03:43:43.455Z,67.84
2019-04-27T03:46:12.979Z,67.85
2019-04-27T03:48:42.589Z,67.95
2019-04-27T03:51:16.410Z,67.95
2019-04-27T03:54:02.927Z,67.96
2019-04-27T03:56:39.377Z,67.98
2019-04-27T03:59:10.339Z,67.96
2019-04-27T04:01:41.631Z,68.04
2019-04-27T04:04:11.235Z,68.19
2019-04-27T04:06:40.891Z,68.17
2019-04-27T04:09:10.851Z,68.21
2019-04-27T04:11:44.998Z,68.26
2019-04-27T04:14:21.777Z,68.28
2019-04-27T04:16:52.968Z,68.35
2019-04-27T04:19:22.685Z,68.40
2019-04-27T04:21:52.272Z,68.43
2019-04-27T04:24:21.804Z,68.36
2019-04-27T04:26:51.432Z,68.40
2019-04-27T04:29:21.224Z,68.41
2019-04-27T04:31:51.147Z,68.45
2019-04-27T04:34:20.760Z,68.42
2019-04-27T04:36:50.577Z,68.46
2019-04-27T04:39:20.246Z,68.52
2019-04-27T04:42:09.955Z,68.58
2019-04-27T04:44:41.229Z,68.63
2019-04-27T04:47:13.175Z,68.57
2019-04-27T04:49:42.887Z,68.60
2019-04-27T04:52:12.485Z,68.57
2019-04-27T04:54:42.239Z,68.42
2019-04-27T04:57:11.859Z,68.52
2019-04-27T04:59:43.766Z,68.63
2019-04-27T05:02:12.666Z,68.64
2019-04-27T05:04:42.272Z,68.71
2019-04-27T05:07:11.827Z,68.70
2019-04-27T05:09:41.376Z,68.63
2019-04-27T05:12:11.016Z,68.63
2019-04-27T05:14:40.609Z,68.58
2019-04-27T05:17:10.367Z,68.47
2019-04-27T05:19:40.467Z,68.34
2019-04-27T05:22:10.100Z,68.20
2019-04-27T05:24:39.732Z,68.15
2019-04-27T05:27:09.390Z,68.13
2019-04-27T05:29:39.084Z,68.14
2019-04-27T05:32:09.242Z,68.21
2019-04-27T05:34:39.470Z,68.25
2019-04-27T05:37:09.182Z,68.20
2019-04-27T05:39:39.076Z,68.03
2019-04-27T05:42:12.445Z,68.01
2019-04-27T05:45:02.028Z,67.84
2019-04-27T05:47:48.464Z,67.71
2019-04-27T05:50:20.128Z,67.63
2019-04-27T05:52:49.692Z,67.75
2019-04-27T05:55:19.424Z,67.68
2019-04-27T05:57:49.149Z,67.48
2019-04-27T06:00:21.023Z,67.31
2019-04-27T06:02:50.720Z,67.14
2019-04-27T06:05:22.727Z,67.06
2019-04-27T06:07:52.734Z,67.16
2019-04-27T06:10:22.261Z,67.06
2019-04-27T06:12:51.826Z,67.00
2019-04-27T06:15:21.365Z,66.92
2019-04-27T06:17:51.025Z,66.98
2019-04-27T06:20:20.561Z,67.02
2019-04-27T06:22:50.613Z,66.99
2019-04-27T06:25:21.645Z,66.74
2019-04-27T06:27:51.433Z,66.76
2019-04-27T06:30:21.161Z,66.91
2019-04-27T06:32:50.811Z,66.92
2019-04-27T06:35:21.651Z,66.94
2019-04-27T06:37:51.263Z,66.71
2019-04-27T06:40:20.812Z,66.58
2019-04-27T06:42:50.329Z,66.37
2019-04-27T06:45:19.997Z,66.33
2019-04-27T06:47:51.309Z,66.16
2019-04-27T06:50:21.027Z,65.97
2019-04-27T06:52:50.638Z,66.11
2019-04-27T06:55:20.352Z,65.95
2019-04-27T06:57:49.905Z,65.85
2019-04-27T07:00:19.579Z,65.74
2019-04-27T07:02:49.492Z,65.81
2019-04-27T07:05:20.421Z,65.84
2019-04-27T07:07:50.480Z,65.92
2019-04-27T07:10:20.095Z,66.00
2019-04-27T07:12:50.187Z,66.05
2019-04-27T07:15:20.483Z,65.84
2019-04-27T07:17:50.223Z,65.97
2019-04-27T07:20:19.759Z,65.90
2019-04-27T07:22:49.728Z,66.08
2019-04-27T07:25:19.420Z,66.46
2019-04-27T07:27:49.488Z,67.13
2019-04-27T07:30:19.680Z,67.53
2019-04-27T07:32:49.206Z,68.14
2019-04-27T07:35:19.681Z,68.23
2019-04-27T07:37:49.494Z,68.31
2019-04-27T07:40:19.029Z,68.80
2019-04-27T07:42:50.226Z,68.87
2019-04-27T07:45:26.853Z,69.47
2019-04-27T07:47:56.404Z,70.03
2019-04-27T07:50:25.946Z,70.40
2019-04-27T07:52:55.482Z,70.42
2019-04-27T07:55:25.062Z,70.97
2019-04-27T07:57:54.673Z,71.33
2019-04-27T08:00:24.353Z,71.71
2019-04-27T08:02:54.283Z,72.04
2019-04-27T08:05:23.814Z,72.25
2019-04-27T08:07:53.361Z,72.28
2019-04-27T08:10:22.911Z,72.27
2019-04-27T08:12:52.439Z,72.68
2019-04-27T08:15:21.990Z,73.29
2019-04-27T08:17:51.511Z,73.59
2019-04-27T08:20:21.345Z,73.49
2019-04-27T08:22:50.883Z,73.46
2019-04-27T08:25:22.064Z,73.88
2019-04-27T08:28:05.166Z,74.20
2019-04-27T08:30:42.888Z,74.05
2019-04-27T08:33:14.255Z,74.09
2019-04-27T08:35:44.006Z,73.86
2019-04-27T08:38:13.614Z,74.30
2019-04-27T08:40:43.146Z,74.02
2019-04-27T08:43:12.692Z,74.17
2019-04-27T08:45:42.313Z,74.21
2019-04-27T08:48:11.902Z,74.23
2019-04-27T08:50:42.137Z,74.16
2019-04-27T08:53:11.855Z,74.07
2019-04-27T08:55:41.429Z,74.22
2019-04-27T08:58:10.953Z,74.02
2019-04-27T09:00:40.513Z,73.91
2019-04-27T09:03:10.065Z,73.82
2019-04-27T09:05:39.601Z,73.95
2019-04-27T09:08:18.977Z,73.97
2019-04-27T09:10:50.547Z,73.94
2019-04-27T09:13:24.395Z,74.02
2019-04-27T09:15:53.741Z,74.53
2019-04-27T09:18:24.939Z,74.99
2019-04-27T09:20:56.108Z,74.69
2019-04-27T09:23:25.806Z,74.77
2019-04-27T09:25:55.346Z,74.65
2019-04-27T09:28:25.063Z,74.79
2019-04-27T09:30:54.634Z,74.93
2019-04-27T09:33:24.475Z,74.81
2019-04-27T09:35:54.024Z,75.04
2019-04-27T09:38:23.839Z,75.28
2019-04-27T09:40:53.408Z,75.42
2019-04-27T09:43:23.023Z,75.35
2019-04-27T09:45:52.550Z,75.39
2019-04-27T09:48:22.156Z,75.75
2019-04-27T09:50:51.945Z,75.77
2019-04-27T09:53:21.463Z,75.85
2019-04-27T09:55:51.021Z,76.60
2019-04-27T09:58:20.574Z,76.49
2019-04-27T10:00:50.117Z,76.67
2019-04-27T10:03:19.978Z,77.07
2019-04-27T10:05:49.797Z,76.93
2019-04-27T10:08:19.428Z,77.01
2019-04-27T10:10:49.017Z,77.16
2019-04-27T10:13:18.827Z,77.22
2019-04-27T10:15:48.376Z,77.47
2019-04-27T10:18:18.163Z,77.48
2019-04-27T10:20:59.172Z,77.70
2019-04-27T10:23:19.397Z,77.67
2019-04-27T10:25:48.899Z,77.46
2019-04-27T10:28:18.421Z,77.20
2019-04-27T10:30:48.063Z,77.37
2019-04-27T10:33:18.407Z,77.39
2019-04-27T10:35:48.041Z,77.91
2019-04-27T10:38:17.716Z,77.68
2019-04-27T10:40:47.217Z,77.14
2019-04-27T10:43:16.741Z,77.21
2019-04-27T10:45:46.569Z,76.76
2019-04-27T10:48:17.882Z,76.26
2019-04-27T10:50:47.371Z,75.98
2019-04-27T10:53:17.050Z,76.02
2019-04-27T10:55:46.663Z,76.85
2019-04-27T10:58:16.595Z,72.75
2019-04-27T11:00:58.423Z,72.82
2019-04-27T11:03:46.357Z,73.57
2019-04-27T11:06:35.701Z,74.49
2019-04-27T11:09:11.146Z,75.90
2019-04-27T11:11:43.777Z,76.85
2019-04-27T11:14:13.397Z,77.57
2019-04-27T11:16:42.928Z,78.42
2019-04-27T11:19:12.458Z,79.36
2019-04-27T11:21:41.985Z,79.56
2019-04-27T11:24:11.561Z,79.78
2019-04-27T11:26:41.108Z,79.58
2019-04-27T11:29:10.698Z,80.17
2019-04-27T11:31:42.160Z,80.68
2019-04-27T11:34:11.708Z,80.31
2019-04-27T11:36:42.896Z,79.28
2019-04-27T11:39:17.499Z,78.73
2019-04-27T11:41:46.343Z,78.58
2019-04-27T11:44:17.058Z,78.55
2019-04-27T11:46:47.478Z,78.52
2019-04-27T11:49:17.294Z,79.41
2019-04-27T11:51:46.839Z,79.33
2019-04-27T11:54:16.445Z,79.11
2019-04-27T11:56:47.208Z,78.54
2019-04-27T11:59:16.811Z,78.42
2019-04-27T12:01:46.338Z,77.66
2019-04-27T12:04:16.201Z,77.11
2019-04-27T12:06:46.294Z,77.88
2019-04-27T12:09:15.854Z,77.88
2019-04-27T12:11:45.404Z,76.80
2019-04-27T12:14:14.931Z,76.35
2019-04-27T12:16:46.077Z,76.31
2019-04-27T12:19:16.392Z,76.55
2019-04-27T12:21:46.428Z,77.25
2019-04-27T12:24:17.819Z,75.11
2019-04-27T12:27:01.413Z,75.52
2019-04-27T12:29:48.873Z,75.38
2019-04-27T12:32:18.884Z,74.19
2019-04-27T12:34:48.444Z,73.46
2019-04-27T12:37:18.018Z,72.56
2019-04-27T12:39:47.537Z,72.91
2019-04-27T12:42:17.197Z,72.42
2019-04-27T12:44:46.716Z,73.31
2019-04-27T12:47:16.465Z,73.68
2019-04-27T12:49:46.494Z,74.24
2019-04-27T12:52:16.012Z,74.78
2019-04-27T12:54:47.199Z,75.35
2019-04-27T12:57:21.331Z,74.98
2019-04-27T12:59:57.948Z,75.41
2019-04-27T13:02:35.113Z,75.21
2019-04-27T13:05:07.061Z,75.47
2019-04-27T13:07:36.610Z,75.30
2019-04-27T13:10:09.419Z,74.97
2019-04-27T13:12:48.313Z,75.09
2019-04-27T13:15:18.403Z,75.22
2019-04-27T13:17:48.026Z,75.70
2019-04-27T13:20:18.969Z,75.41
2019-04-27T13:22:48.555Z,75.03
2019-04-27T13:25:18.190Z,74.62
2019-04-27T13:27:48.141Z,74.19
2019-04-27T13:30:19.647Z,73.87
2019-04-27T13:32:49.187Z,73.76
2019-04-27T13:35:18.791Z,73.26
2019-04-27T13:37:48.331Z,73.27
2019-04-27T13:40:20.137Z,73.47
2019-04-27T13:42:57.637Z,73.51
2019-04-27T13:45:38.183Z,71.80
2019-04-27T13:48:16.866Z,71.63
2019-04-27T13:50:50.950Z,71.62
2019-04-27T13:53:20.657Z,72.06
2019-04-27T13:55:50.236Z,72.21
2019-04-27T13:58:19.760Z,72.15
2019-04-27T14:00:49.295Z,71.86
2019-04-27T14:03:21.012Z,71.40
2019-04-27T14:05:50.438Z,71.61
2019-04-27T14:08:20.002Z,70.07
2019-04-27T14:10:51.331Z,70.58
2019-04-27T14:13:20.974Z,70.17
2019-04-27T14:15:50.650Z,67.45
2019-04-27T14:18:20.128Z,68.50
2019-04-27T14:20:49.692Z,68.31
2019-04-27T14:23:28.339Z,68.19
2019-04-27T14:25:58.514Z,68.40
2019-04-27T14:28:29.193Z,67.41
2019-04-27T14:30:59.118Z,66.86
2019-04-27T14:33:28.739Z,67.19
2019-04-27T14:35:59.413Z,67.47
2019-04-27T14:38:29.171Z,67.84
2019-04-27T14:40:59.344Z,65.16
2019-04-27T14:43:28.946Z,65.10
2019-04-27T14:45:58.554Z,64.61
2019-04-27T14:48:29.483Z,63.17
2019-04-27T14:50:59.327Z,62.87
2019-04-27T14:53:29.107Z,62.66
2019-04-27T14:55:58.720Z,61.49
2019-04-27T14:58:28.506Z,60.95
2019-04-27T15:00:58.648Z,62.05
2019-04-27T15:03:28.445Z,62.39
2019-04-27T15:05:57.967Z,61.29
2019-04-27T15:08:27.498Z,61.84
2019-04-27T15:10:57.023Z,62.92
2019-04-27T15:13:26.575Z,62.77
2019-04-27T15:15:56.097Z,62.19
2019-04-27T15:18:29.599Z,61.84
2019-04-27T15:21:02.397Z,61.70
2019-04-27T15:23:30.876Z,65.83
2019-04-27T15:26:01.498Z,66.00
2019-04-27T15:28:32.649Z,67.23
2019-04-27T15:31:01.940Z,68.01
2019-04-27T15:33:54.586Z,68.75
2019-04-27T15:36:39.885Z,68.49
2019-04-27T15:39:30.485Z,69.17
2019-04-27T15:42:08.302Z,68.97
2019-04-27T15:44:41.070Z,67.41
2019-04-27T15:47:11.950Z,66.83
2019-04-27T15:49:45.050Z,66.43
2019-04-27T15:52:11.310Z,60.66
2019-04-27T15:54:40.846Z,60.59
2019-04-27T15:57:13.688Z,60.60
2019-04-27T15:59:41.646Z,60.28
2019-04-27T16:02:15.275Z,57.92
2019-04-27T16:04:44.422Z,58.63
2019-04-27T16:07:18.160Z,59.51
2019-04-27T16:09:45.601Z,59.07
2019-04-27T16:12:15.124Z,60.50
2019-04-27T16:14:44.664Z,62.32
2019-04-27T16:17:14.193Z,63.64
2019-04-27T16:19:48.931Z,65.14
2019-04-27T16:22:15.017Z,66.05
2019-04-27T16:24:44.554Z,66.89
2019-04-27T16:27:14.097Z,67.58
2019-04-27T16:29:43.642Z,69.31
2019-04-27T16:32:13.181Z,69.93
2019-04-27T16:34:43.673Z,69.86
2019-04-27T16:37:18.977Z,70.01
2019-04-27T16:39:47.885Z,70.12
2019-04-27T16:42:18.600Z,70.22
2019-04-27T16:44:51.464Z,70.51
2019-04-27T16:47:24.343Z,70.79
2019-04-27T16:49:50.913Z,71.13
2019-04-27T16:52:20.459Z,71.60
2019-04-27T16:54:57.016Z,71.88
2019-04-27T16:57:22.976Z,72.41
2019-04-27T16:59:57.514Z,72.88
2019-04-27T17:02:25.337Z,73.24
2019-04-27T17:04:55.747Z,73.51
2019-04-27T17:07:30.140Z,74.32
2019-04-27T17:09:59.441Z,74.25
2019-04-27T17:12:29.910Z,74.33
2019-04-27T17:15:05.843Z,74.16
2019-04-27T17:17:34.664Z,74.47
2019-04-27T17:20:05.002Z,74.59
2019-04-27T17:22:34.516Z,74.53
2019-04-27T17:25:05.684Z,74.48
2019-04-27T17:27:39.515Z,74.55
2019-04-27T17:30:10.546Z,74.65
2019-04-27T17:32:44.653Z,74.59
2019-04-27T17:35:15.093Z,74.36
2019-04-27T17:37:44.788Z,74.41
2019-04-27T17:40:15.485Z,74.39
2019-04-27T17:42:45.250Z,74.39
2019-04-27T17:45:15.148Z,74.55
2019-04-27T17:47:44.672Z,74.48
2019-04-27T17:50:18.489Z,74.39
2019-04-27T17:52:49.771Z,74.35
2019-04-27T17:55:17.840Z,74.32
2019-04-27T17:57:49.057Z,74.25
2019-04-27T18:00:19.756Z,74.33
2019-04-27T18:02:49.324Z,74.44
2019-04-27T18:05:18.880Z,74.57
2019-04-27T18:07:48.710Z,74.66
2019-04-27T18:10:23.866Z,74.72
2019-04-27T18:12:51.335Z,74.85
2019-04-27T18:15:21.111Z,74.94
2019-04-27T18:17:52.431Z,75.03
2019-04-27T18:20:29.095Z,75.16
2019-04-27T18:23:03.468Z,75.23
2019-04-27T18:25:35.633Z,75.28
2019-04-27T18:28:14.727Z,75.33
2019-04-27T18:30:46.740Z,75.38
2019-04-27T18:33:18.118Z,77.20
2019-04-27T18:35:49.067Z,73.52
2019-04-27T18:38:18.829Z,73.31
2019-04-27T18:40:48.807Z,73.24
2019-04-27T18:43:18.827Z,74.83
2019-04-27T18:45:48.697Z,75.57
2019-04-27T18:48:31.872Z,77.17
2019-04-27T18:51:08.574Z,78.01
2019-04-27T18:53:38.124Z,78.01
2019-04-27T18:56:10.332Z,77.89
2019-04-27T18:58:39.048Z,78.32
2019-04-27T19:01:08.699Z,78.32
2019-04-27T19:03:39.130Z,78.04
2019-04-27T19:06:08.772Z,78.23
2019-04-27T19:08:38.781Z,77.98
2019-04-27T19:11:09.306Z,77.61
2019-04-27T19:13:40.107Z,77.30
2019-04-27T19:16:09.807Z,77.30
2019-04-27T19:18:39.885Z,77.35
2019-04-27T19:21:09.607Z,77.42
2019-04-27T19:23:40.230Z,77.46
2019-04-27T19:26:10.028Z,77.50
2019-04-27T19:28:58.424Z,77.45
2019-04-27T19:31:32.581Z,77.56
2019-04-27T19:34:02.089Z,77.55
2019-04-27T19:36:31.611Z,77.56
2019-04-27T19:39:01.239Z,77.74
2019-04-27T19:41:30.814Z,77.80
2019-04-27T19:44:00.335Z,77.80
2019-04-27T19:46:30.558Z,77.87
2019-04-27T19:49:00.349Z,78.03
2019-04-27T19:51:29.896Z,78.14
2019-04-27T19:53:59.402Z,77.98
2019-04-27T19:56:29.175Z,77.92
2019-04-27T19:59:00.342Z,77.93
2019-04-27T20:01:31.589Z,78.05
2019-04-27T20:04:00.882Z,78.08
2019-04-27T20:06:30.489Z,78.13
2019-04-27T20:09:04.427Z,78.12
2019-04-27T20:11:34.047Z,78.04
2019-04-27T20:14:03.632Z,77.93
2019-04-27T20:16:33.172Z,77.97
2019-04-27T20:19:03.051Z,77.88
2019-04-27T20:21:32.553Z,77.89
2019-04-27T20:24:02.085Z,77.91
2019-04-27T20:26:31.608Z,77.96
2019-04-27T20:29:01.551Z,78.02
2019-04-27T20:31:32.582Z,78.08
2019-04-27T20:34:02.551Z,78.18
2019-04-27T20:36:32.421Z,78.31
2019-04-27T20:39:02.044Z,78.31
2019-04-27T20:41:31.944Z,78.23
2019-04-27T20:44:02.366Z,78.21
2019-04-27T20:46:32.063Z,78.19
2019-04-27T20:49:03.229Z,78.24
2019-04-27T20:51:43.425Z,78.23
2019-04-27T20:54:11.682Z,78.19
2019-04-27T20:56:41.226Z,78.18
2019-04-27T20:59:10.908Z,78.06
2019-04-27T21:01:40.469Z,77.95
2019-04-27T21:04:10.976Z,78.11
2019-04-27T21:06:57.264Z,78.03
2019-04-27T21:09:26.816Z,78.05
2019-04-27T21:11:56.592Z,78.05
2019-04-27T21:14:26.122Z,78.02
2019-04-27T21:16:55.663Z,78.01
2019-04-27T21:19:25.201Z,78.04
2019-04-27T21:21:54.747Z,77.98
2019-04-27T21:24:24.252Z,77.94
2019-04-27T21:26:53.797Z,77.82
2019-04-27T21:29:23.369Z,77.65
2019-04-27T21:31:52.890Z,77.71
2019-04-27T21:34:22.505Z,77.69
2019-04-27T21:36:52.125Z,77.53
2019-04-27T21:39:21.808Z,77.22
2019-04-27T21:41:51.872Z,77.08
2019-04-27T21:44:21.916Z,77.13
2019-04-27T21:46:52.021Z,77.05
2019-04-27T21:49:23.043Z,76.91
2019-04-27T21:52:03.049Z,76.91
2019-04-27T21:54:34.402Z,76.73
2019-04-27T21:57:04.108Z,76.60
2019-04-27T21:59:33.653Z,76.61
2019-04-27T22:02:04.919Z,76.55
2019-04-27T22:04:34.448Z,76.53
2019-04-27T22:07:03.993Z,76.33
2019-04-27T22:09:33.549Z,76.17
2019-04-27T22:12:03.248Z,76.11
2019-04-27T22:14:32.782Z,76.18
2019-04-27T22:17:02.550Z,76.19
2019-04-27T22:19:32.091Z,76.05
2019-04-27T22:22:03.253Z,75.88
2019-04-27T22:24:34.432Z,75.86
2019-04-27T22:27:04.032Z,75.75
2019-04-27T22:29:33.622Z,75.80
2019-04-27T22:32:03.218Z,75.77
2019-04-27T22:34:32.818Z,75.71
2019-04-27T22:37:02.800Z,75.60
2019-04-27T22:39:36.951Z,75.56
2019-04-27T22:42:12.107Z,75.69
2019-04-27T22:44:44.202Z,75.87
2019-04-27T22:47:13.878Z,75.98
2019-04-27T22:49:43.478Z,76.17
2019-04-27T22:52:13.076Z,76.20
2019-04-27T22:54:42.615Z,76.25
2019-04-27T22:57:13.784Z,76.24
2019-04-27T22:59:50.708Z,76.17
2019-04-27T23:02:29.305Z,76.05
2019-04-27T23:05:01.956Z,75.95
2019-04-27T23:07:31.784Z,75.99
2019-04-27T23:10:01.782Z,75.78
2019-04-27T23:12:31.808Z,75.67
2019-04-27T23:15:01.484Z,75.60
2019-04-27T23:17:35.095Z,75.38
2019-04-27T23:20:06.625Z,75.27
2019-04-27T23:22:36.160Z,75.11
2019-04-27T23:25:08.772Z,74.88
2019-04-27T23:27:38.341Z,74.47
2019-04-27T23:30:08.580Z,74.18
2019-04-27T23:32:45.285Z,73.75
2019-04-27T23:35:14.999Z,73.65
2019-04-27T23:37:44.690Z,73.50
2019-04-27T23:40:14.710Z,73.47
2019-04-27T23:42:44.261Z,73.53
2019-04-27T23:45:14.306Z,73.44
2019-04-27T23:47:43.843Z,73.27
2019-04-27T23:50:14.203Z,73.20
2019-04-27T23:53:03.754Z,72.99
2019-04-27T23:55:34.915Z,72.59
2019-04-27T23:58:04.616Z,72.40
